Latest Weather Observations for Ocean Reef

IDW60901

Issued at 2:31 pm WST Saturday 10 December 2022 (issued every 10 minutes, with the page automatically refreshed every 10 minutes)

About weather observations | Map of Perth area stations | Latest observations for Perth area | Other Formats
Station Details ID: 009214 Name: OCEAN REEF Lat: -31.76 Lon: 115.73 Height: 10.0 m
Data from the previous 72 hours. | See also: Recent months at Ocean Reef
Date/Time
WST
Temp
°C
App
Temp
°C
Dew
Point
°C
Rel
Hum
%
Delta-T
°C
Wind Press
QNH
hPa
Press
MSL
hPa
Rain since
9am
mm
Dir  Spd
km/h
Gust
km/h
Spd
kts
Gust
kts
10/02:30pm - - - - - SSW 39 48 21 26 - - -
10/02:00pm - - - - - SSW 39 48 21 26 - - -
10/01:30pm - - - - - SSW 39 46 21 25 - - -
10/01:00pm - - - - - SSW 39 44 21 24 - - -
10/12:30pm - - - - - SSW 33 37 18 20 - - -
10/12:00pm - - - - - SSW 32 39 17 21 - - -
10/11:30am - - - - - SSW 30 33 16 18 - - -
10/11:00am - - - - - SSW 32 37 17 20 - - -
10/10:30am - - - - - SSW 28 35 15 19 - - -
10/10:00am - - - - - S 19 26 10 14 - - -
10/09:30am - - - - - SSE 22 32 12 17 - - -
10/09:00am - - - - - SE 22 30 12 16 - - -
10/08:30am - - - - - SE 26 35 14 19 - - -
10/08:00am - - - - - SE 24 33 13 18 - - -
10/07:30am - - - - - SE 20 30 11 16 - - -
10/07:00am - - - - - SE 17 22 9 12 - - -
10/06:30am - - - - - SE 13 17 7 9 - - -
10/06:00am - - - - - SSE 13 15 7 8 - - -
10/05:30am - - - - - SE 11 13 6 7 - - -
10/05:00am - - - - - SE 9 11 5 6 - - -
10/04:30am - - - - - SE 9 11 5 6 - - -
10/04:00am - - - - - SE 11 15 6 8 - - -
10/03:30am - - - - - SSE 13 19 7 10 - - -
10/03:00am - - - - - SSE 15 19 8 10 - - -
10/02:30am - - - - - SSE 22 28 12 15 - - -
10/02:00am - - - - - SSE 24 32 13 17 - - -
10/01:30am - - - - - SSE 24 32 13 17 - - -
10/01:00am - - - - - SSE 20 28 11 15 - - -
10/12:30am - - - - - SSE 24 32 13 17 - - -
10/12:00am - - - - - SSE 22 35 12 19 - - -
 
Date/Time
WST
Temp
°C
App
Temp
°C
Dew
Point
°C
Rel
Hum
%
Delta-T
°C
Wind Press
QNH
hPa
Press
MSL
hPa
Rain since
9am
mm
Dir  Spd
km/h
Gust
km/h
Spd
kts
Gust
kts
09/11:30pm - - - - - S 30 35 16 19 - - -
09/11:00pm - - - - - SSW 26 32 14 17 - - -
09/10:30pm - - - - - SSW 26 32 14 17 - - -
09/10:00pm - - - - - SSW 24 30 13 16 - - -
09/09:30pm - - - - - SSW 28 33 15 18 - - -
09/09:00pm - - - - - SSW 26 32 14 17 - - -
09/08:30pm - - - - - SSW 24 30 13 16 - - -
09/08:00pm - - - - - SSW 24 30 13 16 - - -
09/07:30pm - - - - - SW 24 30 13 16 - - -
09/07:00pm - - - - - SW 26 32 14 17 - - -
09/06:30pm - - - - - SW 28 33 15 18 - - -
09/06:00pm - - - - - SW 28 33 15 18 - - -
09/05:30pm - - - - - SW 28 33 15 18 - - -
09/05:00pm - - - - - SW 30 35 16 19 - - -
09/04:30pm - - - - - SW 30 37 16 20 - - -
09/04:00pm - - - - - SW 32 37 17 20 - - -
09/03:30pm - - - - - SW 32 37 17 20 - - -
09/03:00pm - - - - - SW 30 35 16 19 - - -
09/02:30pm - - - - - WSW 30 35 16 19 - - -
09/02:00pm - - - - - WSW 28 32 15 17 - - -
09/01:30pm - - - - - WSW 24 28 13 15 - - -
09/01:00pm - - - - - WSW 24 30 13 16 - - -
09/12:30pm - - - - - WSW 22 28 12 15 - - -
09/12:00pm - - - - - SW 22 28 12 15 - - -
09/11:30am - - - - - SW 20 26 11 14 - - -
09/11:00am - - - - - SSW 22 28 12 15 - - -
09/10:30am - - - - - SSW 24 30 13 16 - - -
09/10:00am - - - - - SSW 24 30 13 16 - - -
09/09:30am - - - - - SSW 20 30 11 16 - - -
09/09:00am - - - - - SSW 22 30 12 16 - - -
09/08:30am - - - - - SSW 22 26 12 14 - - -
09/08:00am - - - - - SW 20 26 11 14 - - -
09/07:30am - - - - - SSW 20 24 11 13 - - -
09/07:00am - - - - - SW 20 28 11 15 - - -
09/06:30am - - - - - SSW 24 28 13 15 - - -
09/06:00am - - - - - SW 28 33 15 18 - - -
09/05:30am - - - - - SW 30 35 16 19 - - -
09/05:00am - - - - - SW 32 37 17 20 - - -
09/04:30am - - - - - SW 28 33 15 18 - - -
09/04:00am - - - - - SSW 32 37 17 20 - - -
09/03:30am - - - - - SSW 30 37 16 20 - - -
09/03:00am - - - - - SSW 32 37 17 20 - - -
09/02:30am - - - - - SSW 32 37 17 20 - - -
09/02:00am - - - - - SSW 28 33 15 18 - - -
09/01:30am - - - - - SW 28 33 15 18 - - -
09/01:00am - - - - - SW 32 37 17 20 - - -
09/12:30am - - - - - SW 32 39 17 21 - - -
09/12:00am - - - - - SSW 30 35 16 19 - - -
 
Date/Time
WST
Temp
°C
App
Temp
°C
Dew
Point
°C
Rel
Hum
%
Delta-T
°C
Wind Press
QNH
hPa
Press
MSL
hPa
Rain since
9am
mm
Dir  Spd
km/h
Gust
km/h
Spd
kts
Gust
kts
08/11:30pm - - - - - SW 30 35 16 19 - - -
08/11:00pm - - - - - SW 30 35 16 19 - - -
08/10:30pm - - - - - SW 32 35 17 19 - - -
08/10:00pm - - - - - SW 33 39 18 21 - - -
08/09:30pm - - - - - SW 32 37 17 20 - - -
08/09:00pm - - - - - SW 32 37 17 20 - - -
08/08:30pm - - - - - SW 33 39 18 21 - - -
08/08:00pm - - - - - SW 32 37 17 20 - - -
08/07:30pm - - - - - SW 32 37 17 20 - - -
08/07:00pm - - - - - SW 32 37 17 20 - - -
08/06:30pm - - - - - SW 33 37 18 20 - - -
08/06:00pm - - - - - SW 32 37 17 20 - - -
08/05:30pm - - - - - SW 30 35 16 19 - - -
08/05:00pm - - - - - SW 30 33 16 18 - - -
08/04:30pm - - - - - SW 28 33 15 18 - - -
08/04:00pm - - - - - SW 30 33 16 18 - - -
08/03:30pm - - - - - SW 30 35 16 19 - - -
08/03:00pm - - - - - SW 32 37 17 20 - - -
08/02:30pm - - - - - SW 30 35 16 19 - - -
08/02:00pm - - - - - SW 30 35 16 19 - - -
08/01:30pm - - - - - SW 32 37 17 20 - - -
08/01:00pm - - - - - SW 30 35 16 19 - - -
08/12:30pm - - - - - SW 28 33 15 18 - - -
08/12:00pm - - - - - SW 26 30 14 16 - - -
08/11:30am - - - - - SSW 28 30 15 16 - - -
08/11:00am - - - - - SW 26 30 14 16 - - -
08/10:30am - - - - - SW 24 28 13 15 - - -
08/10:00am - - - - - SW 15 19 8 10 - - -
08/09:30am - - - - - WSW 9 11 5 6 - - -
08/09:00am - - - - - SW 13 15 7 8 - - -
08/08:30am - - - - - SW 13 17 7 9 - - -
08/08:00am - - - - - W 11 13 6 7 - - -
08/07:30am - - - - - W 9 13 5 7 - - -
08/07:00am - - - - - CALM 0 0 0 0 - - -
08/06:30am - - - - - S 6 9 3 5 - - -
08/06:00am - - - - - S 11 15 6 8 - - -
08/05:30am - - - - - SSW 13 17 7 9 - - -
08/05:00am - - - - - E 20 30 11 16 - - -
08/04:30am - - - - - E 24 32 13 17 - - -
08/04:00am - - - - - E 22 35 12 19 - - -
08/03:30am - - - - - E 20 32 11 17 - - -
08/03:00am - - - - - ESE 19 28 10 15 - - -
08/02:30am - - - - - SE 17 22 9 12 - - -
08/02:00am - - - - - SSE 19 26 10 14 - - -
08/01:30am - - - - - SSE 30 41 16 22 - - -
08/01:00am - - - - - SSE 28 37 15 20 - - -
08/12:30am - - - - - S 24 33 13 18 - - -
08/12:00am - - - - - SSE 24 32 13 17 - - -
 
Date/Time
WST
Temp
°C
App
Temp
°C
Dew
Point
°C
Rel
Hum
%
Delta-T
°C
Wind Press
QNH
hPa
Press
MSL
hPa
Rain since
9am
mm
Dir  Spd
km/h
Gust
km/h
Spd
kts
Gust
kts
07/11:30pm - - - - - SSE 20 32 11 17 - - -
07/11:08pm - - - - - S 39 59 21 32 - - -
07/11:00pm - - - - - SSE 32 41 17 22 - - -
07/10:50pm - - - - - S 43 63 23 34 - - -
07/10:47pm - - - - - S 50 70 27 38 - - -
07/10:34pm - - - - - SSW 32 56 17 30 - - -
07/10:30pm - - - - - SSW 24 33 13 18 - - -
07/10:29pm - - - - - S 22 32 12 17 - - -
07/10:00pm - - - - - S 43 61 23 33 - - -
07/09:53pm - - - - - S 46 57 25 31 - - -
07/09:43pm - - - - - S 28 48 15 26 - - -
07/09:30pm - - - - - S 43 65 23 35 - - -
07/09:23pm - - - - - S 43 65 23 35 - - -
07/09:00pm - - - - - S 41 56 22 30 - - -
07/08:30pm - - - - - S 39 54 21 29 - - -
07/08:00pm - - - - - S 44 54 24 29 - - -
07/07:30pm - - - - - S 44 57 24 31 - - -
07/07:00pm - - - - - S 46 56 25 30 - - -
07/06:30pm - - - - - S 48 61 26 33 - - -
07/06:00pm - - - - - S 46 57 25 31 - - -
07/05:30pm - - - - - S 44 59 24 32 - - -
07/05:00pm - - - - - S 41 52 22 28 - - -
07/04:30pm - - - - - S 37 50 20 27 - - -
07/04:00pm - - - - - SSW 44 52 24 28 - - -
07/03:30pm - - - - - SSW 41 54 22 29 - - -
07/03:18pm - - - - - S 24 57 13 31 - - -
07/03:00pm - - - - - ESE 17 30 9 16 - - -

Latest Capital City Observations: Canberra | Sydney | Melbourne | Brisbane | Adelaide | Perth | Hobart | Darwin

Other formats

Comma delimited format used in spreadsheet applications
http://www.bom.gov.au/fwo/IDW60901/IDW60901.94607.axf

JavaScript Object Notation format (JSON) in row-major order
http://www.bom.gov.au/fwo/IDW60901/IDW60901.94607.json

Data quality

Most of these data are generated automatically and are frequently updated. Quality checks on data are not normally performed. It is possible for incorrect values to appear. Refer to information at About Latest Weather Observations and please check the disclaimer before using these data.